Date,TemperatureHighF,TemperatureAvgF,TemperatureLowF,DewpointHighF,DewpointAvgF,DewpointLowF,HumidityHigh,HumidityAvg,HumidityLow,PressureMaxIn,PressureMinIn,WindSpeedMaxMPH,WindSpeedAvgMPH,GustSpeedMaxMPH,PrecipitationSumIn
2013-2-15,61,50,42,37,32,27,69,53,28,29.96,29.88,9,3,0,0.19
2013-2-16,42,35,29,32,27,14,93,73,50,29.95,29.83,9,3,0,0.04
2013-2-17,37,29,22,15,9,3,72,45,26,30.28,29.95,15,7,0,0.01
2013-2-18,54,36,17,24,18,12,87,53,26,30.42,30.21,5,2,0,0.00
2013-2-19,47,40,36,43,32,18,95,76,43,30.22,29.86,7,3,0,0.22
2013-2-20,52,40,27,21,14,5,72,36,16,30.14,29.99,9,3,0,0.00
2013-2-21,56,40,23,23,16,10,79,41,18,30.27,30.11,5,1,0,0.00
2013-2-22,44,34,32,33,31,21,96,88,40,30.33,30.14,4,1,0,0.32
2013-2-23,44,38,34,42,37,33,96,95,91,30.16,29.83,3,1,0,0.19
2013-2-24,61,48,40,44,33,22,98,62,27,30.04,29.81,10,3,0,0.04
2013-2-25,42,37,33,26,23,20,68,56,46,30.22,30.04,4,1,0,0.00
2013-2-26,40,36,32,39,32,22,98,88,60,30.15,29.60,6,2,0,0.94
2013-2-27,57,46,38,39,37,33,98,73,43,29.80,29.65,9,3,0,0.00
2013-2-28,46,42,32,37,28,23,85,59,41,29.87,29.69,12,5,0,0.00
2013-3-1,43,40,34,28,26,25,70,58,48,29.92,29.85,9,4,0,0.00
2013-3-2,45,36,27,29,24,18,86,63,44,29.94,29.82,9,3,0,0.00
2013-3-3,42,34,27,20,17,13,65,50,38,30.00,29.88,10,5,0,0.00
2013-3-4,53,37,24,26,15,8,71,43,17,30.14,30.00,11,3,0,0.00
2013-3-5,46,41,36,42,33,21,95,75,41,30.07,29.58,8,1,0,0.33
2013-3-6,45,39,35,39,28,22,95,67,47,30.09,29.57,20,9,0,0.11
2013-3-7,51,40,33,29,26,24,77,59,41,30.27,30.08,9,4,0,0.00
2013-3-8,54,42,30,26,23,21,73,50,28,30.32,30.20,12,4,0,0.00
2013-3-9,62,45,28,34,28,23,85,56,28,30.36,30.25,4,1,0,0.00
2013-3-10,68,50,31,36,31,26,91,54,26,30.32,30.19,5,1,0,0.00
2013-3-11,66,55,41,53,41,23,86,60,37,30.21,29.87,8,3,0,0.02
2013-3-12,64,57,46,57,47,29,95,72,31,29.95,29.72,10,5,0,0.84
2013-3-13,53,45,33,29,23,16,80,42,27,30.16,29.97,14,8,0,0.00
2013-3-14,50,39,30,19,15,12,55,39,23,30.27,30.14,11,6,0,0.00
2013-3-15,63,47,29,36,26,16,78,46,32,30.19,29.89,8,3,0,0.00
2013-3-16,48,44,42,37,36,35,79,73,62,29.89,29.83,0,0,0,0.00
2013-3-18,39,38,36,38,36,35,96,94,92,30.19,29.85,7,2,0,0.16
2013-3-19,63,48,36,42,28,8,97,57,17,30.04,29.84,13,5,0,0.00
2013-3-20,56,47,38,25,12,4,42,25,17,30.10,29.78,10,4,0,0.00
2013-3-21,47,37,29,25,14,8,57,40,27,30.00,29.76,13,7,0,0.00
2013-3-22,51,36,21,23,14,7,72,43,22,30.09,29.98,9,3,0,0.00
2013-3-23,58,44,35,32,26,18,72,49,31,30.06,29.90,3,1,0,0.00
2013-3-24,44,38,35,36,33,29,94,84,57,29.93,29.56,8,2,0,0.90
2013-3-25,44,38,33,35,27,20,96,68,41,29.84,29.57,15,6,0,0.02
2013-3-26,46,39,33,28,25,22,73,56,43,30.15,29.83,9,5,0,0.00
2013-3-27,44,37,33,25,24,20,71,60,39,30.25,30.14,11,6,0,0.00
2013-3-28,54,46,33,26,23,20,66,42,28,30.30,30.18,11,6,0,0.00
2013-3-29,60,45,27,32,25,20,87,51,23,30.35,30.18,7,2,0,0.00
2013-3-30,66,53,37,40,32,25,83,50,26,30.24,30.06,5,1,0,0.00
2013-3-31,65,55,48,56,49,40,96,83,62,30.07,29.78,7,2,0,0.48
2013-4-1,69,58,48,53,44,34,97,64,32,29.97,29.81,13,4,0,0.01
2013-4-2,59,48,34,34,25,16,82,44,20,30.16,29.97,10,3,0,0.00
2013-4-3,59,47,32,31,20,15,72,36,20,30.30,30.14,7,2,0,0.00
2013-4-4,48,40,35,34,26,13,94,62,27,30.35,29.96,7,3,0,0.92
2013-4-5,65,48,34,46,38,28,96,72,26,30.03,29.89,7,3,0,0.02
2013-4-6,66,51,35,37,32,28,91,54,27,30.26,30.03,5,2,0,0.00
2013-4-7,71,57,40,45,40,32,86,55,33,30.25,30.08,8,3,0,0.00
2013-4-8,78,66,52,55,51,44,88,62,39,30.14,30.02,8,3,0,0.00
2013-4-9,84,71,57,57,54,50,84,57,34,30.16,30.03,7,3,0,0.00
2013-4-10,86,74,62,60,57,55,78,56,36,30.07,29.90,7,3,0,0.00
2013-4-11,80,71,62,64,59,56,85,67,46,29.95,29.73,8,4,0,0.00
2013-4-12,82,71,62,65,57,38,96,64,35,29.75,29.56,11,6,0,0.56
2013-4-15,68,62,55,58,56,53,94,81,66,30.19,30.03,4,2,0,0.11
2013-4-16,78,66,56,62,58,54,95,76,53,30.27,30.16,5,1,0,0.00
2013-4-17,83,69,59,61,58,55,90,69,42,30.20,30.08,5,1,0,0.00
2013-4-18,79,72,64,62,58,54,84,62,45,30.15,29.98,6,4,0,0.00
2013-4-19,76,68,58,67,62,47,94,83,70,29.98,29.67,10,5,0,0.28
2013-4-20,64,53,43,47,34,27,79,50,27,30.26,29.82,10,4,0,0.01
2013-4-21,62,49,38,38,35,29,92,60,37,30.49,30.26,6,2,0,0.00
2013-4-22,63,50,37,39,32,24,89,54,24,30.46,30.26,7,3,0,0.00
2013-4-23,70,56,46,51,45,39,85,68,46,30.28,30.09,5,2,0,0.01
2013-4-24,74,62,51,56,53,48,93,72,49,30.11,29.95,10,4,0,0.00
2013-4-25,71,59,47,56,39,27,77,52,20,30.27,29.99,8,3,0,0.00
2013-4-26,71,57,41,46,35,29,84,49,23,30.43,30.27,5,1,0,0.00
2013-4-27,67,60,54,52,47,39,85,62,48,30.34,30.24,4,1,0,0.00
2013-4-28,57,55,52,54,52,50,96,91,79,30.24,30.05,6,1,0,1.35
2013-4-29,71,59,54,62,57,53,97,91,71,30.05,29.96,3,1,0,0.33
2013-4-30,67,59,53,58,55,52,97,88,71,30.19,30.00,5,1,0,0.00
2013-5-1,64,58,53,57,54,51,96,89,76,30.31,30.17,6,3,0,0.00
2013-5-2,61,57,52,55,52,49,95,85,79,30.33,30.26,5,2,0,0.00
2013-5-3,67,57,48,52,48,42,96,74,52,30.26,30.15,7,2,0,0.00
2013-5-4,61,53,47,51,46,41,93,77,57,30.19,30.06,7,4,0,0.00
2013-5-5,55,52,47,53,48,43,95,87,78,30.09,29.95,6,4,0,0.10
2013-5-6,67,58,54,63,56,53,97,93,80,29.98,29.81,6,2,0,1.88
2013-5-7,70,59,54,58,54,46,98,84,47,29.93,29.83,10,2,0,0.00
2013-5-8,69,59,51,59,54,50,97,85,64,29.99,29.90,8,2,0,0.18
2013-5-9,82,65,49,60,55,48,98,74,39,30.06,29.97,7,2,0,0.01
2013-5-10,76,60,54,60,56,53,95,86,59,30.05,30.01,4,0,0,0.00
2013-5-13,66,58,47,41,32,26,73,39,24,30.18,30.03,8,4,0,0.00
2013-5-14,71,56,38,43,38,34,92,55,30,30.25,30.04,7,2,0,0.00
2013-5-15,88,72,58,61,54,43,71,55,37,30.04,29.87,8,4,0,0.00
2013-5-16,84,74,62,61,58,54,89,60,39,29.96,29.87,8,2,0,0.00
2013-5-17,86,74,60,63,60,57,92,64,40,30.06,29.95,4,1,0,0.00
2013-5-18,75,68,62,66,63,60,95,85,74,30.13,30.04,4,1,0,0.13
2013-5-19,75,68,63,68,65,62,96,91,78,30.11,30.02,4,2,0,0.23
2013-5-20,79,70,66,72,67,65,97,90,67,30.09,29.99,4,1,0,0.06
2013-5-21,88,75,66,72,68,64,98,81,47,30.03,29.90,5,2,0,0.00
2013-5-22,84,74,66,69,66,63,94,77,58,29.99,29.86,8,3,0,0.10
2013-5-23,77,69,63,68,65,60,96,87,71,29.92,29.79,9,2,0,0.32
2013-5-24,67,63,52,58,45,37,83,53,37,30.18,29.89,12,6,0,0.00
2013-5-25,75,59,43,45,38,29,88,51,23,30.28,30.12,8,3,0,0.00
2013-5-26,75,62,50,52,45,36,83,57,30,30.27,30.15,6,1,0,0.00
2013-5-27,80,66,51,57,53,49,93,65,41,30.27,30.12,5,2,0,0.00
2013-5-28,84,73,63,65,62,55,91,70,48,30.21,30.11,7,3,0,0.00
2013-5-29,85,75,64,66,62,59,86,67,45,30.21,30.13,6,3,0,0.00
2013-5-30,85,74,64,66,62,58,93,69,41,30.25,30.15,6,2,0,0.00
2013-5-31,85,76,64,68,65,61,93,71,51,30.19,30.07,6,2,0,0.00
2013-6-1,87,78,69,67,64,60,89,66,43,30.10,29.98,7,3,0,0.00
2013-6-2,83,74,69,69,66,64,95,77,57,30.00,29.87,7,3,0,0.07
2013-6-3,82,71,67,70,67,61,96,88,62,29.94,29.81,11,2,0,0.68
2013-6-4,76,68,62,66,63,60,97,83,64,30.08,29.93,4,1,0,0.00
2013-6-5,73,67,60,67,63,58,97,87,69,30.12,29.99,4,1,0,0.14
2013-6-6,73,69,64,71,67,62,96,94,91,30.01,29.78,5,2,0,0.65
2013-6-7,74,69,67,71,68,66,98,96,87,29.81,29.59,6,2,0,0.44
2013-6-8,84,72,62,68,65,60,98,80,47,30.06,29.80,8,1,0,0.47
2013-6-9,87,75,65,71,68,64,97,81,54,30.13,30.02,11,1,0,0.76
2013-6-10,82,73,69,72,70,67,97,90,67,30.06,29.83,12,4,0,1.38
2013-6-11,84,75,67,68,65,61,96,73,47,29.94,29.86,9,4,0,0.00
2013-6-12,91,79,63,75,68,61,95,71,55,29.95,29.83,6,2,0,0.00
2013-6-13,93,83,74,74,71,60,93,70,39,29.84,29.57,13,4,0,0.00
2013-6-17,85,78,73,73,71,67,89,78,59,29.98,29.89,4,2,0,0.46
2013-6-18,80,72,68,72,69,66,97,89,73,29.93,29.76,8,2,0,0.52
2013-6-19,82,72,62,68,65,61,98,80,53,30.10,29.87,3,1,0,0.01
2013-6-20,79,68,63,66,64,62,98,88,64,30.22,30.10,4,1,0,0.00
2013-7-24,90,84,75,71,69,64,84,62,44,29.82,29.72,5,3,0,0.00
2013-7-25,83,73,65,69,66,62,91,78,59,30.01,29.82,6,2,0,0.00
2013-7-26,84,74,64,68,65,62,96,75,53,30.08,29.99,4,1,0,0.00
2013-7-27,77,71,67,71,67,64,97,89,75,30.02,29.91,7,1,0,0.00
2013-7-28,85,75,68,72,69,66,98,82,54,29.96,29.89,5,2,0,0.00
2013-7-29,86,74,64,68,64,58,97,74,41,30.14,29.96,5,1,0,0.00
2013-7-30,86,73,61,69,63,58,95,74,46,30.21,30.11,4,1,0,0.00
2013-7-31,80,74,69,73,68,66,97,84,65,30.13,29.96,4,1,0,0.00
2013-8-1,87,76,70,73,70,68,96,83,56,29.96,29.83,5,2,0,0.00
2013-8-2,88,77,66,71,67,62,96,74,48,30.00,29.89,4,1,0,0.00
2013-8-3,89,78,69,75,70,66,96,79,48,29.99,29.88,6,2,0,0.02
2013-8-4,86,76,69,70,66,57,93,73,40,30.00,29.87,7,2,0,0.01
2013-8-5,82,73,63,68,65,60,93,76,58,30.06,29.96,5,1,0,0.01
2013-8-6,77,71,63,70,66,61,96,85,77,30.04,29.96,6,2,0,0.01
2013-8-7,83,75,69,71,68,64,92,80,57,30.07,29.99,5,2,0,0.01
2013-8-8,83,76,70,74,71,68,94,84,71,30.05,29.96,5,2,0,0.01
2013-8-9,90,79,74,75,73,71,93,82,57,30.01,29.94,7,2,0,0.03
2013-8-10,91,77,71,77,72,68,97,87,55,30.06,29.99,16,2,0,0.01
2013-8-11,92,78,70,76,72,69,98,83,50,30.09,29.99,5,1,0,0.02
2013-8-12,93,80,71,74,71,67,98,77,47,30.02,29.91,11,1,0,0.03
2013-8-13,87,75,71,75,71,68,97,88,63,29.92,29.76,9,2,0,0.02
2013-8-14,77,70,62,68,62,55,93,75,48,30.06,29.82,6,2,0,0.02
2013-8-15,76,66,57,60,57,53,97,75,46,30.16,30.06,4,1,0,0.00
2013-8-16,72,63,55,62,58,54,97,86,66,30.17,30.09,4,1,0,0.01
2013-8-17,65,62,58,64,60,57,98,95,91,30.19,30.13,6,2,0,0.01
2013-8-19,76,72,66,70,68,65,97,89,78,30.14,30.07,2,1,0,0.00
2013-8-20,82,71,63,72,68,63,99,88,66,30.17,30.09,2,0,0,0.01
2013-8-21,83,74,68,76,71,67,98,91,71,30.20,30.07,6,1,0,0.02
2013-8-22,89,78,71,74,71,66,97,80,51,30.11,29.97,4,1,0,0.01
2013-8-23,86,74,64,71,67,62,96,80,57,30.07,29.91,8,2,0,1.55
2013-8-24,81,70,61,63,60,56,95,76,44,30.28,30.07,6,2,0,0.01
2013-8-25,81,68,58,64,60,57,97,78,47,30.38,30.27,4,1,0,0.00
2013-8-26,84,69,55,64,59,54,97,73,38,30.31,30.09,3,1,0,0.00
2013-8-27,89,76,65,74,67,60,92,75,52,30.10,29.94,6,2,0,0.00
2013-8-28,84,77,68,74,71,66,96,82,68,29.97,29.85,5,2,0,0.01
2013-8-29,88,79,73,74,71,70,89,78,58,29.98,29.83,6,2,0,0.00
2013-8-30,88,76,66,70,67,64,98,78,47,30.04,29.90,4,1,0,0.00
2013-8-31,87,75,68,74,69,65,96,82,63,29.93,29.83,9,2,0,0.02
2013-9-1,89,74,68,76,70,67,97,88,62,29.88,29.77,7,2,0,0.70
2013-9-3,88,81,70,73,70,66,93,70,51,29.93,29.80,5,2,0,0.00
2013-9-4,87,73,62,67,64,59,94,75,46,30.07,29.93,4,1,0,0.00
2013-9-5,87,73,62,65,60,48,97,71,27,30.09,30.02,4,1,0,0.00
2013-9-6,81,69,61,63,59,55,93,72,45,30.19,30.08,5,1,0,0.00
2013-9-7,82,68,58,66,62,56,97,80,55,30.12,29.95,5,1,0,0.00
2013-9-8,87,74,64,70,66,62,95,78,49,29.97,29.89,5,1,0,0.00
2013-9-9,89,75,64,71,68,63,98,81,49,30.12,29.97,4,1,0,0.00
2013-9-10,89,77,68,72,69,67,95,78,51,30.21,30.11,4,1,0,0.00
2013-9-11,89,77,69,72,69,66,92,76,54,30.17,30.03,5,1,0,0.00
2013-9-12,91,76,70,76,70,65,96,82,53,30.03,29.79,10,1,0,0.34
2013-9-13,81,72,60,69,60,51,96,69,37,29.90,29.74,8,3,0,0.00
2013-9-14,76,63,55,58,52,49,92,69,45,30.12,29.90,7,2,0,0.00
2013-9-15,79,65,50,63,56,49,95,77,49,30.23,30.10,4,1,0,0.00
2013-9-16,83,71,61,66,62,58,95,76,47,30.17,30.04,6,2,0,0.00
2013-9-17,75,65,58,59,55,51,91,72,46,30.31,30.17,5,2,0,0.00
2013-9-18,73,61,53,57,53,49,92,76,51,30.31,30.16,4,1,0,0.00
2013-9-19,74,65,56,64,58,54,94,80,58,30.18,30.06,3,1,0,0.00
2013-9-20,79,69,64,69,65,62,94,86,69,30.07,29.93,4,1,0,0.00
2013-9-21,76,68,63,69,65,62,97,91,79,29.93,29.69,6,2,0,0.64
2013-9-22,76,66,58,62,57,53,97,77,47,29.89,29.70,7,2,0,0.00
2013-9-23,74,62,54,58,53,48,95,75,50,30.06,29.89,4,1,0,0.00
2013-9-24,78,64,54,61,57,52,96,80,50,30.08,29.92,3,0,0,0.00
2013-9-25,68,60,53,61,57,52,97,89,73,29.94,29.86,3,0,0,0.00
2013-9-26,76,64,54,59,56,48,98,79,39,30.03,29.88,6,1,0,0.01
2013-9-30,78,66,50,59,55,49,97,71,45,30.10,29.99,4,1,0,0.00
2013-10-1,83,66,52,63,57,51,97,76,43,30.11,30.01,5,1,0,0.01
2013-10-2,85,68,54,63,58,53,96,75,40,30.13,30.03,4,1,0,0.00
2013-10-3,84,70,59,65,61,57,96,76,45,30.11,30.03,4,1,0,0.00
2013-10-4,87,72,60,66,62,58,95,74,41,30.11,30.03,4,1,0,0.00
2013-10-5,88,73,60,68,64,59,96,77,45,30.10,29.99,4,0,0,0.00
2013-10-6,82,72,63,68,64,60,93,76,54,30.02,29.88,5,2,0,0.00
2013-10-7,73,68,59,69,65,52,97,88,73,30.00,29.78,8,3,0,0.59
2013-10-8,65,58,54,52,48,45,82,68,51,30.21,29.99,8,4,0,0.00
2013-10-9,68,58,52,53,49,45,84,72,48,30.22,30.11,9,5,0,0.00
2013-10-10,66,59,53,60,55,48,95,87,79,30.11,29.95,6,3,0,0.04
2013-10-11,71,65,59,63,60,57,93,84,70,29.97,29.90,5,1,0,0.00
2013-10-12,68,63,56,64,60,55,96,90,79,30.08,29.94,5,1,0,0.01
2013-10-13,65,62,59,62,60,58,97,94,90,30.22,30.08,6,3,0,0.06
2013-10-14,64,60,57,60,58,55,97,93,85,30.25,30.18,5,3,0,0.03
2013-10-15,72,60,51,56,54,50,98,80,46,30.21,30.06,5,1,0,0.00
2013-10-16,76,65,59,61,58,55,92,79,56,30.07,29.92,4,1,0,0.00
2013-10-17,68,64,60,64,61,58,96,90,79,29.95,29.81,4,1,0,0.05
2013-10-18,71,60,51,63,52,46,97,78,47,30.04,29.86,4,1,0,0.01
2013-10-19,61,56,52,59,55,50,98,94,91,29.97,29.81,4,0,0,0.04
2013-10-20,67,52,42,54,43,34,98,73,36,30.11,29.91,6,1,0,0.01
2013-10-21,69,52,37,51,44,36,96,78,46,30.16,29.98,4,1,0,0.00
2013-10-22,67,59,54,57,53,50,96,81,56,29.99,29.77,4,1,0,0.00
2013-10-23,64,56,45,57,45,30,97,69,32,29.99,29.68,14,5,0,0.00
2013-10-25,52,44,34,34,30,26,91,58,38,30.38,30.29,8,3,0,0.00
2013-10-26,58,43,27,36,30,25,94,64,34,30.37,30.07,7,2,0,0.00
2013-10-27,68,54,39,45,40,36,90,62,34,30.12,30.03,6,1,0,0.00
2013-10-28,68,55,44,54,48,41,94,79,51,30.25,30.10,4,0,0,0.00
2013-10-29,73,59,50,56,52,48,96,81,52,30.33,30.23,4,0,0,0.00
2013-10-30,77,63,52,58,55,50,95,77,50,30.27,30.13,6,1,0,0.00
2013-10-31,70,64,58,62,57,55,90,77,64,30.16,29.86,7,3,0,0.00
2013-11-1,69,65,59,64,61,56,96,88,78,29.86,29.64,9,4,0,0.35
2013-11-2,68,58,48,58,46,35,98,69,35,29.95,29.68,10,3,0,0.01
2013-11-3,60,48,37,39,36,33,91,66,38,30.37,29.95,9,2,0,0.00
2013-11-4,56,42,33,35,32,30,95,70,39,30.56,30.36,5,1,0,0.00
2013-11-5,57,46,34,48,38,28,93,74,59,30.58,30.44,6,2,0,0.00
2013-11-6,72,56,45,54,49,42,95,77,52,30.44,30.10,3,1,0,0.00
2013-11-7,64,54,43,56,46,32,97,75,46,30.12,29.94,11,3,0,0.00
2013-11-8,54,42,30,33,29,22,92,64,30,30.29,30.12,9,3,0,0.00
2013-11-12,53,51,50,34,33,32,55,51,45,30.10,30.09,5,2,0,0.00
2013-11-13,46,35,26,23,19,14,84,54,29,30.56,30.47,7,2,0,0.00
2013-11-14,58,39,24,26,22,19,88,56,23,30.48,30.33,6,1,0,0.00
2013-11-15,59,45,30,48,33,23,95,65,37,30.36,30.21,4,1,0,0.06
2013-11-16,58,52,49,55,51,48,98,94,88,30.27,30.20,2,0,0,0.04
2013-11-17,65,59,54,63,57,53,98,94,82,30.22,29.84,5,1,0,0.06
2013-11-18,70,62,50,65,48,29,97,65,29,29.98,29.79,10,4,0,0.08
2013-11-19,54,46,40,29,27,24,63,47,32,30.30,29.97,7,3,0,0.00
2013-11-20,51,42,35,30,28,25,72,59,43,30.48,30.30,6,2,0,0.00
2013-11-21,56,47,39,43,38,30,80,72,61,30.52,30.39,5,2,0,0.00
2013-11-22,65,56,47,58,51,42,94,82,74,30.40,30.08,7,2,0,0.01
2013-11-23,60,53,39,57,39,17,96,64,31,30.19,30.03,9,4,0,0.00
2013-11-24,39,31,25,21,6,-1,50,36,22,30.56,30.19,11,5,0,0.00
2013-11-25,40,34,21,16,9,4,68,37,25,30.59,30.38,4,1,0,0.00
2013-11-26,45,37,32,44,32,10,97,84,32,30.37,29.60,6,2,0,2.16
2013-11-27,44,37,27,43,31,14,98,79,55,30.19,29.50,14,6,0,0.56
2013-11-28,46,31,21,24,18,13,83,60,33,30.48,30.19,9,1,0,0.00
2013-12-2,37,31,28,34,29,27,94,92,89,29.94,29.94,0,0,0,0.00
2013-12-17,61,54,44,36,34,32,63,49,38,30.03,29.86,16,5,0,0.00
2013-12-18,49,39,30,23,19,15,70,47,26,30.28,30.22,8,2,0,0.00
2013-12-19,63,45,28,27,24,21,79,46,23,30.32,30.20,7,2,0,0.00
2013-12-20,63,55,42,52,42,27,83,62,44,30.23,30.10,8,3,18,0.00
2013-12-21,71,60,47,63,55,45,97,84,68,30.12,29.98,8,3,18,0.00
2013-12-22,73,66,60,67,63,58,96,90,77,30.05,29.94,9,5,18,0.72
2013-12-23,63,56,41,62,53,31,97,89,68,30.17,29.96,10,4,18,0.77
2013-12-24,43,36,26,32,23,13,75,59,38,30.47,30.15,11,5,20,0.00
2013-12-25,41,28,20,19,14,8,83,57,28,30.57,30.40,3,1,18,0.00
2013-12-26,50,34,22,29,22,16,86,64,37,30.40,30.27,6,1,18,0.00
2013-12-27,54,35,22,30,22,18,91,66,28,30.49,30.38,3,0,18,0.00
2013-12-28,55,39,24,42,28,21,95,69,30,30.42,30.14,4,1,18,0.05
2013-12-29,56,45,39,49,42,37,97,89,72,30.17,29.72,6,2,18,0.94
2013-12-30,50,42,32,41,36,31,97,81,66,30.14,29.92,5,1,18,0.00
2013-12-31,49,40,32,35,27,20,95,64,35,30.36,30.12,9,2,18,0.00
2014-1-1,49,37,28,29,25,22,90,65,36,30.41,30.15,5,1,18,0.00
2014-1-2,45,39,32,42,35,28,96,86,74,30.15,29.63,11,2,18,0.38